createdAt,value
2019-05-16T00:00:32.551Z,9.30
2019-05-16T00:03:14.188Z,9.40
2019-05-16T00:05:58.271Z,9.50
2019-05-16T00:08:39.000Z,9.40
2019-05-16T00:11:20.622Z,9.40
2019-05-16T00:14:01.887Z,9.30
2019-05-16T00:16:43.900Z,9.30
2019-05-16T00:19:25.127Z,9.10
2019-05-16T01:01:38.702Z,8.60
2019-05-16T01:04:19.390Z,8.70
2019-05-16T01:07:01.795Z,8.70
2019-05-16T01:09:43.964Z,8.70
2019-05-16T01:12:23.783Z,8.70
2019-05-16T01:18:32.551Z,8.80
2019-05-16T01:21:18.577Z,8.70
2019-05-16T01:24:00.344Z,8.80
2019-05-16T01:26:42.327Z,8.80
2019-05-16T01:29:24.374Z,8.80
2019-05-16T01:32:08.403Z,8.80
2019-05-16T01:34:49.992Z,8.80
2019-05-16T01:37:31.821Z,8.70
2019-05-16T01:40:13.860Z,8.70
2019-05-16T01:42:55.344Z,8.70
2019-05-16T01:45:38.399Z,8.70
2019-05-16T01:48:20.353Z,8.60
2019-05-16T01:51:02.322Z,8.70
2019-05-16T01:53:45.888Z,8.80
2019-05-16T01:56:28.093Z,8.70
2019-05-16T01:59:09.922Z,8.80
2019-05-16T02:01:51.123Z,8.80
2019-05-16T02:04:32.765Z,8.70
2019-05-16T02:07:14.659Z,8.80
2019-05-16T02:09:58.089Z,8.80
2019-05-16T02:12:39.887Z,8.80
2019-05-16T02:15:21.169Z,8.70
2019-05-16T02:18:03.116Z,8.70
2019-05-16T02:20:45.000Z,8.70
2019-05-16T02:23:27.765Z,8.80
2019-05-16T02:26:09.418Z,8.90
2019-05-16T02:28:51.219Z,8.90
2019-05-16T02:31:33.138Z,8.90
2019-05-16T02:34:15.104Z,8.80
2019-05-16T02:37:12.029Z,8.80
2019-05-16T02:39:40.906Z,8.80
2019-05-16T02:42:22.676Z,8.80
2019-05-16T02:45:04.177Z,8.80
2019-05-16T02:47:45.527Z,8.80
2019-05-16T02:50:27.356Z,8.80
2019-05-16T02:53:12.594Z,8.80
2019-05-16T02:55:52.726Z,8.80
2019-05-16T02:58:34.501Z,8.70
2019-05-16T03:01:17.370Z,8.70
2019-05-16T03:04:01.681Z,8.80
2019-05-16T03:06:42.989Z,8.70
2019-05-16T03:09:24.889Z,8.70
2019-05-16T03:12:06.214Z,8.80
2019-05-16T03:14:50.413Z,8.80
2019-05-16T03:17:31.842Z,8.70
2019-05-16T03:20:13.754Z,8.70
2019-05-16T03:22:55.818Z,8.60
2019-05-16T03:25:37.057Z,8.60
2019-05-16T03:28:22.367Z,8.70
2019-05-16T03:31:05.056Z,8.70
2019-05-16T03:33:56.530Z,8.70
2019-05-16T03:36:27.701Z,8.60
2019-05-16T03:39:11.796Z,8.70
2019-05-16T03:41:53.849Z,8.70
2019-05-16T03:44:35.881Z,8.70
2019-05-16T03:47:17.212Z,8.80
2019-05-16T03:50:00.691Z,8.80
2019-05-16T03:52:43.929Z,8.80
2019-05-16T03:55:25.509Z,8.80
2019-05-16T03:58:06.954Z,8.80
2019-05-16T04:00:52.460Z,8.90
2019-05-16T04:03:33.142Z,8.80
2019-05-16T04:06:16.775Z,8.90
2019-05-16T04:09:01.243Z,8.80
2019-05-16T04:11:42.527Z,8.90
2019-05-16T04:16:56.448Z,8.90
2019-05-16T04:19:45.484Z,8.90
2019-05-16T04:22:26.700Z,8.90
2019-05-16T04:25:11.353Z,8.90
2019-05-16T04:27:51.784Z,9.00
2019-05-16T04:30:33.348Z,8.90
2019-05-16T04:33:15.182Z,8.80
2019-05-16T04:35:56.487Z,8.90
2019-05-16T04:38:42.801Z,9.00
2019-05-16T04:41:21.994Z,9.00
2019-05-16T04:44:04.862Z,9.10
2019-05-16T04:46:46.722Z,9.10
2019-05-16T04:49:28.050Z,9.10
2019-05-16T04:52:11.214Z,9.10
2019-05-16T04:54:52.869Z,9.10
2019-05-16T04:57:34.737Z,9.30
2019-05-16T05:00:16.143Z,9.20
2019-05-16T05:03:01.119Z,9.10
2019-05-16T05:05:41.487Z,9.20
2019-05-16T05:08:10.988Z,9.30
2019-05-16T05:11:01.358Z,9.20
2019-05-16T05:14:02.518Z,9.20
2019-05-16T05:16:43.626Z,9.30
2019-05-16T05:19:25.518Z,9.30
2019-05-16T05:22:07.557Z,9.30
2019-05-16T05:24:50.730Z,9.20
2019-05-16T05:27:32.295Z,9.30
2019-05-16T05:30:13.995Z,9.20
2019-05-16T05:32:56.004Z,9.30
2019-05-16T05:35:37.369Z,9.50
2019-05-16T05:39:12.960Z,9.50
2019-05-16T05:45:05.739Z,9.70
2019-05-16T05:47:50.534Z,9.80
2019-05-16T05:50:32.082Z,9.90
2019-05-16T05:53:13.961Z,9.90
2019-05-16T05:55:55.828Z,10.00
2019-05-16T05:58:40.582Z,10.10
2019-05-16T06:01:20.786Z,10.30
2019-05-16T06:04:02.405Z,10.40
2019-05-16T06:06:45.097Z,10.40
2019-05-16T06:09:30.041Z,10.40
2019-05-16T06:12:10.573Z,10.60
2019-05-16T06:14:51.974Z,10.70
2019-05-16T06:17:33.227Z,10.80
2019-05-16T06:20:15.043Z,11.00
2019-05-16T06:22:57.100Z,11.10
2019-05-16T06:25:40.558Z,11.30
2019-05-16T06:28:21.580Z,11.30
2019-05-16T06:31:03.176Z,11.50
2019-05-16T06:33:45.051Z,11.60
2019-05-16T06:36:26.209Z,11.50
2019-05-16T06:39:11.219Z,11.40
2019-05-16T06:41:52.055Z,11.40
2019-05-16T06:44:33.840Z,11.60
2019-05-16T06:47:19.620Z,11.80
2019-05-16T06:49:50.861Z,11.70
2019-05-16T06:52:50.230Z,12.00
2019-05-16T06:55:40.552Z,12.00
2019-05-16T06:58:22.507Z,11.70
2019-05-16T07:00:52.853Z,11.80
2019-05-16T07:03:50.591Z,11.80
2019-05-16T07:06:51.763Z,11.80
2019-05-16T07:09:20.691Z,12.00
2019-05-16T07:12:02.346Z,12.20
2019-05-16T07:14:42.177Z,12.50
2019-05-16T07:17:11.555Z,12.80
2019-05-16T07:20:00.865Z,13.00
2019-05-16T07:23:02.702Z,13.30
2019-05-16T07:25:44.403Z,13.30
2019-05-16T07:28:26.362Z,13.50
2019-05-16T07:30:55.809Z,13.50
2019-05-16T07:33:44.537Z,13.70
2019-05-16T07:36:26.147Z,13.40
2019-05-16T07:39:10.557Z,13.60
2019-05-16T07:41:51.244Z,13.70
2019-05-16T07:44:32.351Z,14.00
2019-05-16T07:47:13.565Z,14.40
2019-05-16T07:49:55.671Z,14.70
2019-05-16T07:52:39.975Z,15.30
2019-05-16T07:55:22.719Z,15.20
2019-05-16T07:58:06.797Z,15.50
2019-05-16T08:00:57.891Z,15.50
2019-05-16T08:03:32.744Z,15.50
2019-05-16T08:06:14.662Z,15.70
2019-05-16T08:08:56.217Z,15.90
2019-05-16T08:11:40.865Z,16.00
2019-05-16T08:14:30.362Z,15.70
2019-05-16T08:17:17.466Z,15.70
2019-05-16T08:20:00.141Z,15.70
2019-05-16T08:22:41.998Z,15.80
2019-05-16T08:25:23.490Z,15.80
2019-05-16T08:28:05.371Z,15.60
2019-05-16T08:30:47.218Z,15.70
2019-05-16T08:33:16.600Z,15.60
2019-05-16T08:36:08.196Z,15.60
2019-05-16T08:38:54.349Z,15.50
2019-05-16T08:41:36.243Z,15.70
2019-05-16T08:44:21.320Z,16.10
2019-05-16T08:49:32.069Z,16.30
2019-05-16T08:52:22.387Z,16.70
2019-05-16T08:55:03.915Z,17.00
2019-05-16T08:57:45.912Z,17.20
2019-05-16T09:00:27.899Z,17.30
2019-05-16T09:03:12.374Z,17.30
2019-05-16T09:05:53.657Z,17.50
2019-05-16T09:08:35.136Z,17.40
2019-05-16T09:11:33.738Z,17.70
2019-05-16T09:13:59.367Z,18.10
2019-05-16T09:16:40.715Z,18.30
2019-05-16T09:18:30.617Z,16.30
2019-05-16T09:19:27.536Z,18.40
2019-05-16T09:22:13.035Z,18.20
2019-05-16T09:24:57.427Z,18.30
2019-05-16T09:27:38.082Z,18.50
2019-05-16T09:30:27.497Z,18.80
2019-05-16T09:33:29.011Z,18.80
2019-05-16T09:36:10.986Z,18.80
2019-05-16T09:38:52.446Z,18.30
2019-05-16T09:41:49.764Z,18.20
2019-05-16T09:44:18.313Z,18.60
2019-05-16T09:47:00.116Z,19.50
2019-05-16T09:49:41.305Z,19.30
2019-05-16T09:52:22.481Z,19.50
2019-05-16T09:55:03.745Z,19.70
2019-05-16T09:57:33.165Z,19.40
2019-05-16T10:00:33.099Z,19.20
2019-05-16T10:03:22.645Z,18.70
2019-05-16T10:06:24.290Z,17.30
2019-05-16T10:09:06.454Z,17.10
2019-05-16T10:12:05.258Z,17.10
2019-05-16T10:14:33.186Z,17.70
2019-05-16T10:17:14.687Z,18.30
2019-05-16T10:20:00.122Z,18.50
2019-05-16T10:22:39.647Z,18.80
2019-05-16T10:25:21.591Z,18.90
2019-05-16T10:28:03.644Z,18.70
2019-05-16T10:30:47.132Z,19.40
2019-05-16T10:33:28.578Z,19.70
2019-05-16T10:36:10.492Z,20.10
2019-05-16T10:38:52.372Z,20.30
2019-05-16T10:41:33.676Z,20.50
2019-05-16T10:44:17.476Z,20.30
2019-05-16T10:46:58.612Z,20.10
2019-05-16T10:49:41.940Z,19.60
2019-05-16T10:52:23.953Z,19.60
2019-05-16T10:55:08.136Z,20.10
2019-05-16T10:57:49.627Z,20.40
2019-05-16T11:00:57.728Z,20.80
2019-05-16T11:03:17.139Z,21.10
2019-05-16T11:06:05.469Z,21.10
2019-05-16T11:08:41.140Z,21.00
2019-05-16T11:11:27.093Z,21.10
2019-05-16T11:14:09.334Z,20.90
2019-05-16T11:16:51.104Z,21.90
2019-05-16T11:19:32.844Z,23.80
2019-05-16T11:22:14.567Z,25.10
2019-05-16T11:24:56.651Z,25.40
2019-05-16T11:27:37.506Z,26.40
2019-05-16T11:30:28.080Z,26.20
2019-05-16T11:33:29.528Z,25.60
2019-05-16T11:36:13.023Z,24.60
2019-05-16T11:39:00.962Z,25.60
2019-05-16T11:41:38.782Z,24.80
2019-05-16T11:44:20.945Z,23.30
2019-05-16T11:47:02.705Z,22.60
2019-05-16T11:49:44.784Z,21.20
2019-05-16T11:52:26.667Z,20.40
2019-05-16T11:55:07.880Z,20.40
2019-05-16T11:57:49.050Z,19.90
2019-05-16T12:00:30.776Z,19.30
2019-05-16T12:03:12.140Z,19.50
2019-05-16T12:05:54.251Z,20.00
2019-05-16T12:08:37.099Z,20.00
2019-05-16T12:11:19.109Z,19.90
2019-05-16T12:14:01.011Z,19.60
2019-05-16T12:16:42.822Z,19.80
2019-05-16T12:19:33.455Z,20.30
2019-05-16T12:22:07.672Z,20.90
2019-05-16T12:24:48.849Z,21.70
2019-05-16T12:27:33.280Z,23.10
2019-05-16T12:30:14.282Z,23.10
2019-05-16T12:32:58.086Z,24.80
2019-05-16T12:35:39.207Z,25.90
2019-05-16T12:38:21.115Z,25.50
2019-05-16T12:41:02.852Z,24.40
2019-05-16T12:43:49.573Z,24.50
2019-05-16T12:46:28.102Z,24.10
2019-05-16T12:49:09.742Z,25.70
2019-05-16T12:51:51.581Z,26.30
2019-05-16T12:54:32.832Z,26.30
2019-05-16T12:57:14.740Z,28.50
2019-05-16T12:59:57.202Z,29.90
2019-05-16T13:02:39.134Z,27.60
2019-05-16T13:05:23.337Z,26.10
2019-05-16T13:10:47.013Z,29.60
2019-05-16T13:13:29.826Z,31.20
2019-05-16T13:16:11.844Z,29.30
2019-05-16T13:18:56.592Z,30.70
2019-05-16T13:21:38.476Z,32.50
2019-05-16T13:24:20.579Z,33.00
2019-05-16T13:27:02.680Z,32.80
2019-05-16T13:29:47.704Z,32.40
2019-05-16T13:32:29.300Z,31.60
2019-05-16T13:37:52.613Z,30.40
2019-05-16T13:40:34.881Z,30.20
2019-05-16T13:43:17.523Z,30.70
2019-05-16T13:46:00.148Z,31.60
2019-05-16T13:48:42.351Z,31.70
2019-05-16T13:51:24.127Z,32.40
2019-05-16T13:54:07.076Z,33.40
2019-05-16T13:56:49.103Z,31.70
2019-05-16T13:59:33.518Z,31.40
2019-05-16T14:02:17.429Z,29.50
2019-05-16T14:04:59.015Z,27.70
2019-05-16T14:07:40.876Z,26.00
2019-05-16T14:10:22.409Z,25.20
2019-05-16T14:13:04.374Z,24.10
2019-05-16T14:15:47.277Z,24.00
2019-05-16T14:18:28.829Z,23.90
2019-05-16T14:21:13.502Z,24.00
2019-05-16T14:23:53.851Z,23.90
2019-05-16T14:26:35.695Z,23.60
2019-05-16T14:29:17.713Z,23.10
2019-05-16T14:32:00.066Z,23.00
2019-05-16T14:34:41.747Z,22.60
2019-05-16T14:37:23.495Z,22.80
2019-05-16T14:40:04.969Z,22.80
2019-05-16T14:42:47.864Z,22.90
2019-05-16T14:45:29.627Z,23.00
2019-05-16T14:48:11.511Z,22.90
2019-05-16T14:50:53.577Z,22.50
2019-05-16T14:53:23.108Z,22.20
2019-05-16T14:56:07.573Z,21.90
2019-05-16T14:58:41.734Z,21.70
2019-05-16T15:01:23.397Z,21.50
2019-05-16T15:04:07.383Z,21.10
2019-05-16T15:06:48.446Z,21.10
2019-05-16T15:15:29.023Z,21.20
2019-05-16T15:18:10.960Z,20.90
2019-05-16T15:20:52.865Z,20.40
2019-05-16T15:23:34.687Z,20.10
2019-05-16T15:26:18.088Z,20.10
2019-05-16T15:28:59.672Z,19.90
2019-05-16T15:31:40.813Z,19.60
2019-05-16T15:34:22.354Z,19.50
2019-05-16T15:37:04.147Z,19.30
2019-05-16T15:39:47.602Z,19.20
2019-05-16T15:42:28.474Z,19.20
2019-05-16T15:45:10.176Z,19.10
2019-05-16T15:47:52.169Z,19.10
2019-05-16T15:50:33.990Z,18.90
2019-05-16T15:53:17.697Z,18.90
2019-05-16T15:55:59.277Z,18.60
2019-05-16T15:58:40.674Z,18.50
2019-05-16T16:01:22.692Z,18.40
2019-05-16T16:04:06.906Z,18.30
2019-05-16T16:06:47.585Z,18.20
2019-05-16T16:09:17.445Z,18.20
2019-05-16T16:12:12.979Z,18.20
2019-05-16T16:14:54.237Z,18.20
2019-05-16T16:17:38.103Z,18.40
2019-05-16T16:20:19.953Z,18.40
2019-05-16T16:23:01.423Z,18.50
2019-05-16T16:25:43.399Z,18.40
2019-05-16T16:28:27.847Z,18.50
2019-05-16T16:31:09.318Z,18.60
2019-05-16T16:33:52.212Z,18.80
2019-05-16T16:36:33.679Z,18.90
2019-05-16T16:39:15.289Z,18.70
2019-05-16T16:41:56.925Z,18.30
2019-05-16T16:44:47.196Z,18.10
2019-05-16T16:47:48.540Z,17.80
2019-05-16T16:50:30.249Z,17.50
2019-05-16T16:53:12.210Z,17.10
2019-05-16T16:55:56.662Z,16.90
2019-05-16T16:58:37.477Z,16.80
2019-05-16T17:01:07.992Z,16.70
2019-05-16T17:04:03.780Z,16.60
2019-05-16T17:06:46.942Z,16.60
2019-05-16T17:09:28.883Z,16.30
2019-05-16T17:12:10.963Z,16.20
2019-05-16T17:14:52.780Z,16.20
2019-05-16T17:17:34.368Z,16.10
2019-05-16T17:20:16.512Z,16.00
2019-05-16T17:22:58.603Z,15.70
2019-05-16T17:25:39.785Z,15.60
2019-05-16T17:28:21.140Z,15.60
2019-05-16T17:31:03.135Z,15.70
2019-05-16T17:33:44.810Z,15.70
2019-05-16T17:36:26.791Z,15.70
2019-05-16T17:39:09.525Z,15.70
2019-05-16T17:41:54.855Z,15.70
2019-05-16T17:44:36.446Z,15.80
2019-05-16T17:47:18.207Z,15.80
2019-05-16T17:49:59.515Z,15.80
2019-05-16T17:52:41.651Z,15.90
2019-05-16T17:55:23.341Z,15.90
2019-05-16T17:58:08.593Z,15.90
2019-05-16T18:00:48.436Z,15.90
2019-05-16T18:03:29.644Z,15.80
2019-05-16T18:06:10.751Z,15.70
2019-05-16T18:08:52.912Z,15.70
2019-05-16T18:11:34.558Z,15.60
2019-05-16T18:14:17.146Z,15.50
2019-05-16T18:17:02.182Z,15.20
2019-05-16T18:19:41.874Z,15.20
2019-05-16T18:22:23.509Z,15.20
2019-05-16T18:25:07.021Z,15.20
2019-05-16T18:27:48.727Z,15.10
2019-05-16T18:30:30.257Z,15.00
2019-05-16T18:33:11.686Z,15.00
2019-05-16T18:35:53.388Z,14.80
2019-05-16T18:38:37.334Z,14.70
2019-05-16T18:41:19.183Z,14.60
2019-05-16T18:43:48.746Z,14.40
2019-05-16T18:46:37.560Z,14.50
2019-05-16T18:49:19.503Z,14.40
2019-05-16T18:52:00.930Z,14.30
2019-05-16T18:54:43.071Z,14.30
2019-05-16T18:57:26.799Z,14.20
2019-05-16T19:00:10.571Z,14.10
2019-05-16T19:02:50.485Z,14.10
2019-05-16T19:05:32.232Z,13.90
2019-05-16T19:08:16.199Z,13.90
2019-05-16T19:11:00.027Z,13.90
2019-05-16T19:13:41.249Z,13.80
2019-05-16T19:16:22.362Z,13.70
2019-05-16T19:19:04.111Z,13.70
2019-05-16T19:21:46.215Z,13.60
2019-05-16T19:24:28.069Z,13.60
2019-05-16T19:27:09.216Z,13.50
2019-05-16T19:29:50.689Z,13.40
2019-05-16T19:32:32.627Z,13.40
2019-05-16T19:35:16.332Z,13.40
2019-05-16T19:37:57.045Z,13.40
2019-05-16T19:40:40.524Z,13.30
2019-05-16T19:43:22.100Z,13.30
2019-05-16T19:46:04.141Z,13.30
2019-05-16T19:48:46.520Z,13.20
2019-05-16T19:51:27.814Z,13.20
2019-05-16T19:54:08.940Z,13.20
2019-05-16T19:56:50.265Z,13.20
2019-05-16T19:59:31.882Z,13.10
2019-05-16T20:02:13.636Z,13.00
2019-05-16T20:04:56.290Z,13.00
2019-05-16T20:07:37.825Z,13.00
2019-05-16T20:10:19.498Z,13.00
2019-05-16T20:13:01.160Z,13.00
2019-05-16T20:19:13.489Z,13.00
2019-05-16T20:21:54.760Z,13.00
2019-05-16T20:24:36.296Z,13.00
2019-05-16T20:27:27.221Z,13.00
2019-05-16T20:30:27.631Z,13.00
2019-05-16T20:33:09.609Z,13.10
2019-05-16T20:35:51.749Z,13.10
2019-05-16T20:38:33.507Z,13.00
2019-05-16T20:41:17.082Z,12.90
2019-05-16T20:43:58.298Z,13.00
2019-05-16T20:46:40.060Z,12.90
2019-05-16T20:49:22.008Z,12.80
2019-05-16T20:52:03.526Z,12.70
2019-05-16T20:54:46.657Z,12.60
2019-05-16T20:57:28.547Z,12.50
2019-05-16T21:00:10.571Z,12.50
2019-05-16T21:02:52.423Z,12.40
2019-05-16T21:05:34.388Z,12.30
2019-05-16T21:08:17.257Z,12.30
2019-05-16T21:10:58.807Z,12.30
2019-05-16T21:13:41.861Z,12.20
2019-05-16T21:16:22.944Z,12.20
2019-05-16T21:19:06.980Z,12.20
2019-05-16T21:21:51.464Z,12.20
2019-05-16T21:24:32.889Z,12.10
2019-05-16T21:27:14.175Z,12.10
2019-05-16T21:29:56.678Z,12.10
2019-05-16T21:32:37.970Z,12.10
2019-05-16T21:35:19.293Z,12.00
2019-05-16T21:38:01.175Z,12.00
2019-05-16T21:40:42.504Z,12.00
2019-05-16T21:43:11.879Z,12.00
2019-05-16T21:46:00.601Z,12.00
2019-05-16T21:48:42.575Z,11.90
2019-05-16T21:51:26.642Z,11.90
2019-05-16T21:54:07.285Z,11.80
2019-05-16T21:56:48.784Z,11.80
2019-05-16T21:59:29.977Z,11.80
2019-05-16T22:02:12.170Z,11.80
2019-05-16T22:04:54.215Z,11.80
2019-05-16T22:07:36.540Z,11.80
2019-05-16T22:10:17.965Z,11.80
2019-05-16T22:12:59.800Z,11.80
2019-05-16T22:15:41.518Z,11.70
2019-05-16T22:18:23.315Z,11.70
2019-05-16T22:21:07.371Z,11.70
2019-05-16T22:23:48.326Z,11.60
2019-05-16T22:26:30.150Z,11.60
2019-05-16T22:29:11.694Z,11.50
2019-05-16T22:31:52.912Z,11.50
2019-05-16T22:34:36.953Z,11.40
2019-05-16T22:37:19.142Z,11.40
2019-05-16T22:40:00.813Z,11.40
2019-05-16T22:42:42.858Z,11.40
2019-05-16T22:45:26.627Z,11.40
2019-05-16T22:48:08.357Z,11.40
2019-05-16T22:50:49.945Z,11.40
2019-05-16T22:53:31.971Z,11.40
2019-05-16T22:56:14.023Z,11.30
2019-05-16T22:58:56.430Z,11.30
2019-05-16T23:01:37.968Z,11.30
2019-05-16T23:04:19.998Z,11.30
2019-05-16T23:07:02.027Z,11.30
2019-05-16T23:09:43.331Z,11.30
2019-05-16T23:12:26.578Z,11.30
2019-05-16T23:15:08.250Z,11.30
2019-05-16T23:17:49.424Z,11.40
2019-05-16T23:20:30.655Z,11.30
2019-05-16T23:23:12.286Z,11.30
2019-05-16T23:25:53.914Z,11.30
2019-05-16T23:28:36.816Z,11.30
2019-05-16T23:31:18.317Z,11.30
2019-05-16T23:33:59.912Z,11.30
2019-05-16T23:36:41.751Z,11.30
2019-05-16T23:39:22.878Z,11.20
2019-05-16T23:42:06.217Z,11.20
2019-05-16T23:44:47.516Z,11.20
2019-05-16T23:47:29.368Z,11.10
2019-05-16T23:50:10.576Z,11.10
2019-05-16T23:52:39.957Z,11.10
2019-05-16T23:55:28.669Z,11.20
2019-05-16T23:58:09.859Z,11.10
